Time;durP1;ratioP1;P1;durP2;ratioP2;P2;SDS_P1;SDS_P2;PMS_P1;PMS_P2;Temp;Humidity;BMP_temperature;BMP_pressure;BME280_temperature;BME280_humidity;BME280_pressure;Samples;Min_cycle;Max_cycle;Signal;HPM_P1;HPM_P2
2020/12/01 00:01:34;;;;;;;30.80;19.40;;;3.80;96.00;;;;;;5112681;28;20248;-50
2020/12/01 00:04:01;;;;;;;28.20;20.02;;;3.60;95.70;;;;;;5105421;28;20263;-49
2020/12/01 00:06:30;;;;;;;28.75;20.00;;;3.50;96.70;;;;;;5093337;28;20254;-49
2020/12/01 00:08:57;;;;;;;43.13;25.58;;;3.40;97.30;;;;;;5092214;28;20295;-51
2020/12/01 00:11:24;;;;;;;42.25;26.85;;;3.30;97.50;;;;;;5095648;28;20258;-50
2020/12/01 00:13:51;;;;;;;37.83;27.05;;;3.30;97.90;;;;;;5107726;28;20693;-51
2020/12/01 00:16:18;;;;;;;35.83;24.75;;;3.30;98.00;;;;;;5091472;28;20217;-50
2020/12/01 00:18:45;;;;;;;47.90;30.25;;;3.30;98.00;;;;;;5108395;28;20225;-50
2020/12/01 00:21:13;;;;;;;41.45;29.17;;;3.40;98.20;;;;;;5110089;28;20555;-51
2020/12/01 00:23:40;;;;;;;38.03;24.05;;;3.40;98.10;;;;;;5110461;28;20254;-51
2020/12/01 00:26:07;;;;;;;29.08;21.83;;;3.40;98.30;;;;;;5112252;28;20208;-50
2020/12/01 00:28:34;;;;;;;42.50;26.65;;;3.40;98.10;;;;;;5111699;28;20220;-51
2020/12/01 00:31:00;;;;;;;40.30;23.17;;;3.40;98.20;;;;;;5112220;28;20757;-50
2020/12/01 00:33:27;;;;;;;35.78;24.77;;;3.40;98.20;;;;;;5110750;28;20209;-49
2020/12/01 00:35:55;;;;;;;43.72;26.52;;;3.40;98.40;;;;;;5112345;28;20216;-50
2020/12/01 00:38:22;;;;;;;59.65;34.58;;;3.40;98.60;;;;;;5111354;28;20250;-53
2020/12/01 00:40:49;;;;;;;44.65;30.67;;;3.40;98.60;;;;;;5112545;28;20197;-52
2020/12/01 00:43:16;;;;;;;46.17;30.02;;;3.50;98.90;;;;;;5111975;28;20349;-52
2020/12/01 00:45:43;;;;;;;41.38;20.00;;;3.50;98.40;;;;;;5092937;28;20219;-52
2020/12/01 00:48:10;;;;;;;33.28;21.65;;;3.50;98.10;;;;;;5103855;28;20235;-49
2020/12/01 00:50:37;;;;;;;45.88;28.52;;;3.60;98.20;;;;;;5093211;28;20660;-50
2020/12/01 00:53:04;;;;;;;51.60;32.53;;;3.60;98.10;;;;;;5111804;28;20197;-50
2020/12/01 00:55:31;;;;;;;45.03;27.38;;;3.60;97.90;;;;;;5108435;28;20253;-52
2020/12/01 00:57:58;;;;;;;33.50;21.80;;;3.70;97.80;;;;;;5100184;28;20681;-52
2020/12/01 01:00:26;;;;;;;43.28;29.75;;;3.60;97.50;;;;;;5111682;28;20213;-51
2020/12/01 01:02:53;;;;;;;45.00;30.60;;;3.60;97.60;;;;;;5110906;28;20202;-49
2020/12/01 01:05:20;;;;;;;37.83;25.70;;;3.70;97.90;;;;;;5111020;28;20201;-50
2020/12/01 01:07:46;;;;;;;33.90;21.65;;;3.80;98.00;;;;;;5071103;28;20283;-51
2020/12/01 01:10:15;;;;;;;48.33;25.17;;;3.80;97.50;;;;;;5071683;28;20198;-51
2020/12/01 01:12:42;;;;;;;50.38;33.85;;;3.80;97.50;;;;;;5085747;28;20190;-50
2020/12/01 01:15:10;;;;;;;36.42;23.67;;;3.90;97.80;;;;;;5102656;28;20320;-50
2020/12/01 01:17:37;;;;;;;39.00;25.02;;;3.90;97.80;;;;;;5110858;28;20224;-51
2020/12/01 01:20:04;;;;;;;35.05;24.27;;;4.00;97.90;;;;;;5110348;28;20189;-50
2020/12/01 01:22:31;;;;;;;40.55;26.40;;;4.00;97.40;;;;;;5110631;28;20865;-49
2020/12/01 01:24:57;;;;;;;35.83;27.42;;;3.90;97.10;;;;;;5110559;28;20262;-50
2020/12/01 01:27:25;;;;;;;39.92;28.83;;;3.90;97.20;;;;;;5110180;28;20262;-50
2020/12/01 01:29:52;;;;;;;33.80;22.45;;;3.90;97.00;;;;;;5110589;28;20643;-51
2020/12/01 01:32:19;;;;;;;41.97;30.80;;;3.90;97.10;;;;;;5110574;28;20233;-49
2020/12/01 01:34:46;;;;;;;29.67;19.20;;;3.90;97.10;;;;;;5110175;28;20217;-50
2020/12/01 01:37:12;;;;;;;41.38;26.95;;;3.80;97.00;;;;;;5110130;28;20694;-49
2020/12/01 01:39:39;;;;;;;46.47;30.58;;;3.90;97.30;;;;;;5110487;28;20257;-49
2020/12/01 01:42:06;;;;;;;38.90;24.50;;;4.00;97.80;;;;;;5110209;28;20247;-48
2020/12/01 01:44:34;;;;;;;38.55;24.48;;;4.00;97.40;;;;;;5096624;28;20205;-48
2020/12/01 01:47:02;;;;;;;39.22;24.23;;;3.80;97.20;;;;;;5110165;28;20273;-52
2020/12/01 01:49:32;;;;;;;39.78;26.63;;;3.80;97.50;;;;;;5107715;28;20225;-52
2020/12/01 01:51:59;;;;;;;34.53;26.25;;;3.80;97.70;;;;;;5105913;28;20208;-51
2020/12/01 01:54:26;;;;;;;39.88;28.33;;;3.90;98.00;;;;;;5109909;28;20212;-51
2020/12/01 01:56:56;;;;;;;37.70;27.23;;;3.90;97.90;;;;;;5110250;28;20269;-50
2020/12/01 01:59:23;;;;;;;37.72;25.48;;;4.00;97.40;;;;;;5110302;28;20251;-50
2020/12/01 02:01:51;;;;;;;44.92;29.20;;;3.80;96.80;;;;;;5109749;28;20681;-50
2020/12/01 02:04:18;;;;;;;42.38;26.10;;;3.90;97.40;;;;;;5109860;28;20235;-50
2020/12/01 02:06:46;;;;;;;35.85;24.65;;;3.90;97.20;;;;;;5105037;28;20206;-50
2020/12/01 02:09:14;;;;;;;38.78;29.23;;;3.90;97.10;;;;;;5110278;28;20250;-50
2020/12/01 02:11:42;;;;;;;42.58;27.92;;;3.90;97.40;;;;;;5110333;28;20208;-50
2020/12/01 02:14:11;;;;;;;40.05;29.35;;;3.90;97.50;;;;;;5109665;28;20249;-50
2020/12/01 02:16:39;;;;;;;34.50;21.67;;;3.90;97.30;;;;;;5099225;28;20755;-49
2020/12/01 02:19:07;;;;;;;33.53;21.95;;;3.90;97.40;;;;;;5108596;28;20697;-50
2020/12/01 02:21:37;;;;;;;39.70;25.50;;;3.90;96.90;;;;;;5110129;28;20242;-49
2020/12/01 02:24:05;;;;;;;40.95;26.08;;;3.90;97.00;;;;;;5109871;28;20717;-50
2020/12/01 02:26:33;;;;;;;31.13;22.15;;;3.90;97.10;;;;;;5110367;28;20193;-50
2020/12/01 02:29:02;;;;;;;34.30;25.38;;;3.90;97.30;;;;;;5109292;28;20301;-50
2020/12/01 02:31:29;;;;;;;36.50;25.25;;;3.90;97.60;;;;;;5110139;28;20265;-51
2020/12/01 02:33:56;;;;;;;37.58;26.73;;;3.90;97.60;;;;;;5109696;28;20278;-51
2020/12/01 02:36:23;;;;;;;37.95;25.88;;;3.90;97.70;;;;;;5106528;28;20251;-51
2020/12/01 02:38:50;;;;;;;41.15;32.35;;;3.90;97.70;;;;;;5104364;28;20291;-51
2020/12/01 02:41:16;;;;;;;31.15;20.90;;;4.00;97.70;;;;;;5110142;28;20585;-49
2020/12/01 02:43:44;;;;;;;29.02;21.80;;;4.00;97.60;;;;;;5109595;28;20277;-50
2020/12/01 02:46:11;;;;;;;34.72;26.08;;;3.90;97.30;;;;;;5101789;28;20198;-50
2020/12/01 02:48:38;;;;;;;37.85;28.17;;;3.90;97.50;;;;;;5106453;28;20277;-49
2020/12/01 02:51:04;;;;;;;51.30;31.73;;;3.90;97.70;;;;;;5114304;28;20204;-50
2020/12/01 02:53:31;;;;;;;35.53;26.48;;;3.90;97.80;;;;;;5112946;28;20681;-49
2020/12/01 02:55:58;;;;;;;27.00;20.38;;;3.90;97.50;;;;;;5113654;28;20229;-50
2020/12/01 02:58:25;;;;;;;29.30;22.02;;;3.90;97.50;;;;;;5112734;28;20284;-50
2020/12/01 03:00:52;;;;;;;37.42;28.70;;;3.80;97.50;;;;;;5113759;28;20273;-50
2020/12/01 03:03:19;;;;;;;28.52;18.67;;;3.90;97.40;;;;;;5113479;28;20202;-51
2020/12/01 03:05:46;;;;;;;45.65;29.88;;;3.80;97.20;;;;;;5113394;28;20224;-49
2020/12/01 03:08:13;;;;;;;30.95;23.20;;;3.80;97.50;;;;;;5113485;28;20273;-49
2020/12/01 03:10:40;;;;;;;36.58;27.70;;;3.90;97.60;;;;;;5113081;28;20198;-50
2020/12/01 03:13:07;;;;;;;32.33;22.92;;;3.90;97.40;;;;;;5113215;28;20201;-50
2020/12/01 03:15:33;;;;;;;25.77;17.83;;;3.90;97.40;;;;;;5111936;28;20262;-49
2020/12/01 03:18:01;;;;;;;28.48;21.05;;;3.90;97.20;;;;;;5101300;28;20229;-49
2020/12/01 03:20:28;;;;;;;42.50;28.38;;;3.90;97.20;;;;;;5113448;28;20201;-50
2020/12/01 03:22:55;;;;;;;30.08;22.92;;;3.90;97.20;;;;;;5112870;28;20742;-49
2020/12/01 03:25:21;;;;;;;28.17;19.10;;;3.90;97.20;;;;;;5112185;28;20201;-49
2020/12/01 03:27:48;;;;;;;35.00;27.50;;;3.80;97.30;;;;;;5112294;28;20224;-50
2020/12/01 03:30:15;;;;;;;29.02;21.08;;;3.90;97.60;;;;;;5113749;28;20231;-49
2020/12/01 03:35:18;;;;;;;36.05;28.50;;;4.00;97.70;;;;;;5072503;28;20226;-56
2020/12/01 03:37:45;;;;;;;38.67;25.70;;;4.00;97.50;;;;;;5086448;28;20516;-56
2020/12/01 03:40:12;;;;;;;29.90;23.20;;;4.00;97.40;;;;;;5080886;28;20210;-56
2020/12/01 03:42:39;;;;;;;26.10;18.37;;;4.10;97.40;;;;;;5077130;28;20628;-56
2020/12/01 03:45:05;;;;;;;34.20;25.60;;;4.10;97.10;;;;;;5056507;28;20714;-55
2020/12/01 03:47:32;;;;;;;37.55;25.85;;;4.10;97.20;;;;;;5054104;28;20633;-58
2020/12/01 03:49:59;;;;;;;37.60;26.77;;;4.00;97.30;;;;;;5055134;28;20241;-56
2020/12/01 03:52:27;;;;;;;32.67;24.27;;;4.00;98.30;;;;;;5054970;28;20196;-58
2020/12/01 03:54:53;;;;;;;34.40;22.65;;;4.00;98.40;;;;;;5068528;28;20662;-57
2020/12/01 03:57:20;;;;;;;33.80;25.83;;;4.00;98.30;;;;;;5054112;28;20215;-57
2020/12/01 03:59:47;;;;;;;26.90;20.50;;;4.00;98.90;;;;;;5052900;28;20258;-56
2020/12/01 04:02:14;;;;;;;32.30;21.55;;;4.00;98.90;;;;;;5054092;28;20729;-55
2020/12/01 04:04:41;;;;;;;32.97;25.90;;;4.10;98.80;;;;;;5072856;28;20230;-56
2020/12/01 04:07:08;;;;;;;30.33;23.77;;;4.10;98.80;;;;;;5064275;28;20207;-54
2020/12/01 04:09:35;;;;;;;34.20;23.70;;;4.10;98.20;;;;;;5033750;28;20204;-54
2020/12/01 04:12:02;;;;;;;31.70;22.73;;;4.10;98.20;;;;;;5033710;28;20631;-55
2020/12/01 04:14:29;;;;;;;35.03;23.23;;;4.10;98.10;;;;;;5040108;28;20219;-57
2020/12/01 04:16:56;;;;;;;29.65;21.38;;;4.10;98.30;;;;;;5073488;28;20261;-56
2020/12/01 04:19:23;;;;;;;30.98;22.35;;;4.10;98.30;;;;;;5073299;28;20656;-57
2020/12/01 04:21:49;;;;;;;36.70;25.25;;;4.10;98.00;;;;;;5064968;28;20238;-56
2020/12/01 04:24:16;;;;;;;30.17;20.63;;;4.20;98.20;;;;;;5058679;28;20268;-57
2020/12/01 04:26:44;;;;;;;29.98;21.80;;;4.20;98.10;;;;;;5053591;28;20250;-55
2020/12/01 04:29:11;;;;;;;30.67;23.88;;;4.20;97.50;;;;;;5053100;28;20207;-56
2020/12/01 04:31:37;;;;;;;28.95;18.75;;;4.20;97.80;;;;;;5053452;28;20207;-55
2020/12/01 04:34:04;;;;;;;29.88;21.05;;;4.20;97.60;;;;;;5066694;28;20235;-57
2020/12/01 04:36:31;;;;;;;24.15;19.90;;;4.20;97.60;;;;;;5063822;28;20222;-56
2020/12/01 04:38:58;;;;;;;26.83;20.42;;;4.20;97.80;;;;;;5056750;28;20201;-56
2020/12/01 04:41:25;;;;;;;30.90;23.05;;;4.10;97.20;;;;;;5073215;28;20226;-56
2020/12/01 04:43:54;;;;;;;31.30;22.13;;;4.10;97.60;;;;;;5059979;28;20285;-56
2020/12/01 04:46:22;;;;;;;34.42;24.80;;;4.10;97.80;;;;;;5054174;28;20202;-57
2020/12/01 04:48:50;;;;;;;32.40;26.75;;;4.20;98.00;;;;;;5066654;28;20237;-57
2020/12/01 04:51:44;;;;;;;29.13;20.58;;;4.20;97.80;;;;;;5072871;28;20218;-55
2020/12/01 04:54:42;;;;;;;33.95;24.55;;;4.30;97.20;;;;;;5018553;28;20227;-57
2020/12/01 04:57:42;;;;;;;25.75;20.67;;;4.30;96.90;;;;;;5047500;28;20226;-57
2020/12/01 05:00:14;;;;;;;31.30;22.33;;;4.30;96.90;;;;;;4997717;28;20203;-58
2020/12/01 05:02:51;;;;;;;29.48;20.48;;;4.30;96.90;;;;;;5062370;28;20264;-58
2020/12/01 05:05:38;;;;;;;27.58;20.52;;;4.30;97.00;;;;;;5072173;28;20202;-58
2020/12/01 05:08:32;;;;;;;29.52;22.77;;;4.20;96.80;;;;;;5062563;28;20203;-57
2020/12/01 05:11:01;;;;;;;28.25;22.13;;;4.30;97.00;;;;;;5052375;28;20238;-57
2020/12/01 05:13:30;;;;;;;27.63;20.08;;;4.30;96.90;;;;;;5058249;28;20243;-57
2020/12/01 05:15:59;;;;;;;28.08;20.75;;;4.30;97.00;;;;;;5052444;28;20323;-56
2020/12/01 05:18:26;;;;;;;28.70;21.50;;;4.30;96.70;;;;;;5052100;28;20273;-56
2020/12/01 05:20:54;;;;;;;27.43;18.93;;;4.30;96.70;;;;;;5052399;28;20207;-55
2020/12/01 05:23:24;;;;;;;25.67;21.48;;;4.40;96.80;;;;;;5057930;28;20654;-58
2020/12/01 05:25:57;;;;;;;25.67;19.50;;;4.40;96.60;;;;;;5052483;28;20233;-57
2020/12/01 05:28:24;;;;;;;21.65;16.45;;;4.40;96.90;;;;;;5061691;28;20680;-56
2020/12/01 05:30:59;;;;;;;22.33;15.75;;;4.50;96.50;;;;;;5061767;28;20345;-56
2020/12/01 05:33:27;;;;;;;21.25;14.85;;;4.40;96.60;;;;;;5056674;28;20222;-56
2020/12/01 05:36:01;;;;;;;24.70;19.80;;;4.40;96.60;;;;;;5060677;28;20681;-55
2020/12/01 05:38:28;;;;;;;24.48;18.95;;;4.40;96.80;;;;;;5068467;28;20286;-56
2020/12/01 05:40:56;;;;;;;25.73;20.85;;;4.30;96.90;;;;;;5059981;28;20207;-59
2020/12/01 05:43:28;;;;;;;26.87;20.10;;;4.40;97.00;;;;;;5052813;28;20216;-57
2020/12/01 05:46:11;;;;;;;23.70;18.40;;;4.50;97.00;;;;;;5058026;28;20642;-57
2020/12/01 05:49:01;;;;;;;24.40;17.70;;;4.50;96.60;;;;;;5063559;28;20225;-59
2020/12/01 05:51:35;;;;;;;26.73;19.50;;;4.50;96.50;;;;;;5068451;28;21207;-59
2020/12/01 05:54:02;;;;;;;17.20;13.95;;;4.60;96.30;;;;;;5055765;28;20281;-58
2020/12/01 05:56:29;;;;;;;30.17;21.50;;;4.60;96.40;;;;;;5032064;28;20224;-57
2020/12/01 05:58:58;;;;;;;26.10;19.60;;;4.60;96.10;;;;;;5031662;28;20639;-56
2020/12/01 06:01:26;;;;;;;25.13;20.80;;;4.60;96.10;;;;;;5071330;28;20687;-57
2020/12/01 06:04:11;;;;;;;27.25;18.92;;;4.60;96.30;;;;;;5057011;28;20220;-56
2020/12/01 06:06:58;;;;;;;21.40;17.33;;;4.60;96.30;;;;;;5050804;28;20676;-57
2020/12/01 06:09:37;;;;;;;23.13;19.63;;;4.60;96.50;;;;;;5053786;28;20679;-57
2020/12/01 06:12:05;;;;;;;27.42;20.45;;;4.60;96.20;;;;;;5052300;28;20620;-56
2020/12/01 06:14:33;;;;;;;23.88;17.98;;;4.60;96.10;;;;;;5052050;28;20800;-56
2020/12/01 06:17:02;;;;;;;26.67;20.53;;;4.60;96.10;;;;;;5050692;28;20719;-57
2020/12/01 06:19:32;;;;;;;22.65;18.05;;;4.60;95.90;;;;;;5051216;28;20630;-59
2020/12/01 06:22:29;;;;;;;21.50;17.95;;;4.60;96.00;;;;;;5032437;28;20676;-56
2020/12/01 06:25:08;;;;;;;25.73;18.97;;;4.60;96.20;;;;;;5055943;28;20276;-56
2020/12/01 06:27:50;;;;;;;18.90;13.97;;;4.60;96.30;;;;;;5031451;28;20622;-58
2020/12/01 06:30:47;;;;;;;23.38;18.70;;;4.60;96.30;;;;;;5035869;28;20648;-56
2020/12/01 06:33:53;;;;;;;26.95;17.42;;;4.50;96.40;;;;;;5062502;28;20226;-57
2020/12/01 06:37:00;;;;;;;25.83;18.60;;;4.50;96.50;;;;;;5017317;28;20285;-58
2020/12/01 06:39:38;;;;;;;22.90;18.02;;;4.50;96.50;;;;;;5051806;28;20695;-57
2020/12/01 06:42:10;;;;;;;18.00;13.87;;;4.60;96.50;;;;;;5053062;28;20265;-57
2020/12/01 06:44:37;;;;;;;25.90;18.27;;;4.60;96.40;;;;;;5052806;28;20658;-55
2020/12/01 06:47:04;;;;;;;27.23;20.67;;;4.60;96.40;;;;;;5032649;28;20219;-59
2020/12/01 06:49:32;;;;;;;28.43;17.80;;;4.70;96.30;;;;;;5034723;28;20559;-57
2020/12/01 06:52:03;;;;;;;28.50;21.80;;;4.70;96.10;;;;;;5054030;28;20706;-58
2020/12/01 06:54:30;;;;;;;26.73;17.47;;;4.70;96.10;;;;;;5055408;28;20658;-59
2020/12/01 06:57:01;;;;;;;23.02;18.80;;;4.70;96.00;;;;;;5065093;28;20657;-57
2020/12/01 06:59:28;;;;;;;21.00;16.40;;;4.80;96.10;;;;;;5054828;28;20640;-58
2020/12/01 07:02:05;;;;;;;25.50;18.70;;;4.80;95.90;;;;;;5058155;28;20675;-58
2020/12/01 07:04:32;;;;;;;22.43;16.67;;;4.80;96.20;;;;;;5045897;28;20227;-58
2020/12/01 07:07:01;;;;;;;23.43;18.37;;;4.80;95.80;;;;;;5041735;28;20686;-56
2020/12/01 07:09:30;;;;;;;19.17;15.25;;;4.80;95.80;;;;;;5040841;28;20642;-57
2020/12/01 07:12:03;;;;;;;21.57;16.97;;;4.80;95.80;;;;;;5023369;28;20311;-58
2020/12/01 07:14:38;;;;;;;22.97;17.83;;;4.70;96.00;;;;;;5040934;28;20720;-58
2020/12/01 07:17:16;;;;;;;21.13;15.87;;;4.70;96.10;;;;;;5045480;28;21215;-57
2020/12/01 07:19:44;;;;;;;24.73;17.57;;;4.70;96.10;;;;;;5042413;28;20634;-57
2020/12/01 07:22:18;;;;;;;24.23;16.77;;;4.80;96.20;;;;;;5036139;28;20642;-56
2020/12/01 07:24:47;;;;;;;27.07;18.30;;;4.90;96.00;;;;;;5030244;28;20710;-56
2020/12/01 07:27:17;;;;;;;22.15;16.95;;;4.90;96.00;;;;;;5069324;28;21254;-56
2020/12/01 07:30:00;;;;;;;23.77;15.98;;;4.90;95.90;;;;;;5040785;28;20215;-56
2020/12/01 07:32:28;;;;;;;27.10;17.30;;;4.90;95.80;;;;;;5035499;28;20204;-56
2020/12/01 07:35:10;;;;;;;29.20;19.83;;;4.90;95.80;;;;;;5033430;28;20691;-56
2020/12/01 07:37:53;;;;;;;21.58;16.25;;;4.90;95.80;;;;;;5053629;28;20712;-58
2020/12/01 07:40:25;;;;;;;28.70;19.57;;;4.90;95.80;;;;;;5054259;28;20200;-56
2020/12/01 07:42:57;;;;;;;29.30;18.77;;;4.90;95.80;;;;;;5054871;28;20681;-58
2020/12/01 07:45:24;;;;;;;22.10;15.80;;;4.90;95.80;;;;;;5065697;28;20656;-57
2020/12/01 07:47:55;;;;;;;21.70;16.57;;;4.90;95.70;;;;;;5054094;28;20695;-58
2020/12/01 07:50:22;;;;;;;25.03;17.87;;;4.90;95.70;;;;;;5053898;28;20621;-58
2020/12/01 07:52:56;;;;;;;25.97;18.60;;;5.00;95.80;;;;;;5053187;28;20668;-58
2020/12/01 07:55:25;;;;;;;27.70;18.67;;;5.00;95.80;;;;;;5053543;28;20640;-60
2020/12/01 07:57:59;;;;;;;21.13;18.10;;;5.10;95.80;;;;;;5053742;28;20654;-56
2020/12/01 08:00:27;;;;;;;25.43;18.47;;;5.10;95.60;;;;;;5053548;28;20622;-57
2020/12/01 08:03:01;;;;;;;18.60;13.23;;;5.10;95.90;;;;;;5053588;28;20671;-58
2020/12/01 08:05:28;;;;;;;26.00;19.03;;;5.10;95.50;;;;;;5053762;28;20722;-57
2020/12/01 08:07:55;;;;;;;25.83;16.13;;;5.10;95.50;;;;;;5053369;28;20626;-58
2020/12/01 08:10:23;;;;;;;26.23;17.83;;;5.00;95.70;;;;;;5053490;28;20628;-57
2020/12/01 08:12:51;;;;;;;22.13;17.07;;;5.10;95.60;;;;;;5053330;28;20630;-56
2020/12/01 08:15:20;;;;;;;21.90;15.90;;;5.10;95.60;;;;;;5053156;28;20687;-57
2020/12/01 08:17:48;;;;;;;24.93;17.50;;;5.10;95.50;;;;;;5053049;28;20726;-56
2020/12/01 08:20:16;;;;;;;20.90;16.83;;;5.10;95.50;;;;;;5053088;28;20691;-57
2020/12/01 08:22:46;;;;;;;23.13;16.40;;;5.00;95.30;;;;;;5068479;28;21222;-57
2020/12/01 08:25:14;;;;;;;24.83;17.80;;;5.10;95.60;;;;;;5052976;28;20688;-58
2020/12/01 08:27:44;;;;;;;19.37;15.53;;;5.10;95.60;;;;;;5053351;28;20660;-58
2020/12/01 08:30:28;;;;;;;25.43;18.23;;;5.20;95.60;;;;;;5053247;28;21174;-58
2020/12/01 08:32:58;;;;;;;33.53;18.20;;;5.20;95.50;;;;;;5052675;28;20663;-57
2020/12/01 08:35:32;;;;;;;19.10;16.13;;;5.30;95.40;;;;;;5053042;28;20637;-58
2020/12/01 08:38:03;;;;;;;22.23;16.23;;;5.30;95.40;;;;;;5068152;28;21311;-57
2020/12/01 08:40:35;;;;;;;21.40;16.17;;;5.30;95.30;;;;;;5052883;28;20622;-57
2020/12/01 08:43:16;;;;;;;21.70;17.60;;;5.30;95.30;;;;;;5053038;28;20626;-57
2020/12/01 08:45:50;;;;;;;22.00;16.07;;;5.30;95.30;;;;;;5052436;28;20656;-57
2020/12/01 08:48:28;;;;;;;22.60;17.90;;;5.30;95.20;;;;;;5052599;28;20833;-57
2020/12/01 08:51:05;;;;;;;18.83;15.20;;;5.40;95.30;;;;;;5052229;28;20625;-57
2020/12/01 08:53:43;;;;;;;22.00;16.07;;;5.40;95.30;;;;;;5052887;28;20653;-57
2020/12/01 08:56:17;;;;;;;23.97;17.97;;;5.40;95.00;;;;;;5052829;28;21173;-58
2020/12/01 08:58:46;;;;;;;23.20;17.13;;;5.40;95.00;;;;;;5052735;28;21263;-58
2020/12/01 09:01:13;;;;;;;20.17;14.20;;;5.40;95.10;;;;;;5067856;28;20711;-57
2020/12/01 09:03:54;;;;;;;23.73;18.63;;;5.30;95.10;;;;;;5052139;28;20666;-56
2020/12/01 09:06:22;;;;;;;21.60;16.30;;;5.40;95.20;;;;;;5052654;28;20630;-58
2020/12/01 09:08:54;;;;;;;20.60;16.20;;;5.40;95.20;;;;;;5052401;28;20993;-58
2020/12/01 09:14:14;;;;;;;20.43;14.60;;;5.40;95.20;;;;;;5067651;28;20645;-56
2020/12/01 09:22:10;;;;;;;21.53;16.80;;;5.50;95.20;;;;;;5050295;28;20680;-57
2020/12/01 09:24:38;;;;;;;20.27;16.80;;;5.50;95.10;;;;;;5051704;28;20696;-58
2020/12/01 09:27:06;;;;;;;21.43;17.67;;;5.50;95.10;;;;;;5052287;28;21204;-58
2020/12/01 09:29:33;;;;;;;17.50;14.23;;;5.60;95.10;;;;;;5051989;28;20622;-55
2020/12/01 09:32:00;;;;;;;22.07;15.47;;;5.60;95.00;;;;;;5052015;28;20626;-56
2020/12/01 09:34:30;;;;;;;18.20;14.23;;;5.60;94.90;;;;;;5082712;22;20733;-50
2020/12/01 09:36:58;;;;;;;20.27;15.97;;;5.60;95.00;;;;;;5090819;28;20672;-50
2020/12/01 09:39:25;;;;;;;18.00;16.20;;;5.60;94.90;;;;;;5090965;28;20620;-51
2020/12/01 09:42:01;;;;;;;24.77;17.00;;;5.70;95.00;;;;;;5091303;28;20690;-52
2020/12/01 09:44:48;;;;;;;21.20;15.37;;;5.70;94.90;;;;;;5090745;28;20721;-50
2020/12/01 09:47:22;;;;;;;13.60;12.20;;;5.70;94.90;;;;;;5050613;28;21165;-52
2020/12/01 09:49:50;;;;;;;21.47;16.33;;;5.80;94.80;;;;;;5050485;28;20729;-49
2020/12/01 09:52:21;;;;;;;18.10;15.37;;;5.80;95.10;;;;;;5050075;28;20637;-50
2020/12/01 09:54:52;;;;;;;21.73;15.60;;;5.80;95.10;;;;;;5050139;28;21244;-52
2020/12/01 09:57:27;;;;;;;26.97;17.10;;;5.80;95.40;;;;;;5048860;28;20641;-50
2020/12/01 10:00:15;;;;;;;18.47;13.07;;;5.80;95.30;;;;;;5050217;28;20684;-50
2020/12/01 10:03:27;;;;;;;37.90;30.80;;;5.90;94.90;;;;;;5051618;28;20851;-49
2020/12/01 10:08:38;;;;;;;20.40;13.90;;;6.00;94.80;;;;;;5017002;28;20622;-50
2020/12/01 10:11:19;;;;;;;21.43;15.20;;;6.00;94.50;;;;;;5050061;28;20631;-49
2020/12/01 10:13:54;;;;;;;22.07;15.27;;;6.00;94.40;;;;;;5049531;28;20665;-48
2020/12/01 10:35:47;;;;;;;18.73;15.07;;;6.00;94.50;;;;;;5070266;28;20944;-50
2020/12/01 10:38:14;;;;;;;19.10;15.30;;;6.00;94.30;;;;;;5069123;28;20657;-49
2020/12/01 10:40:41;;;;;;;25.63;17.63;;;6.10;94.50;;;;;;5069348;28;20691;-50
2020/12/01 10:43:08;;;;;;;17.07;13.97;;;6.00;94.60;;;;;;5069217;28;20621;-50
2020/12/01 10:45:35;;;;;;;20.17;15.70;;;6.00;94.60;;;;;;5069365;28;20637;-50
2020/12/01 10:48:02;;;;;;;19.47;15.80;;;6.10;94.50;;;;;;5069665;28;20614;-50
2020/12/01 10:50:30;;;;;;;21.70;14.43;;;6.10;94.50;;;;;;5069490;28;20626;-51
2020/12/01 10:52:57;;;;;;;18.40;15.17;;;6.20;94.50;;;;;;5069496;28;20716;-51
2020/12/01 10:55:27;;;;;;;19.17;16.90;;;6.20;94.30;;;;;;5069509;28;20711;-51
2020/12/01 10:57:54;;;;;;;19.67;14.10;;;6.20;94.30;;;;;;5068807;28;20654;-50
2020/12/01 11:00:22;;;;;;;22.13;16.47;;;6.30;94.10;;;;;;5069301;28;20689;-52
2020/12/01 11:02:49;;;;;;;21.90;17.27;;;6.20;94.10;;;;;;5070348;28;21257;-53
2020/12/01 11:05:17;;;;;;;24.47;19.40;;;6.30;94.30;;;;;;5069796;28;20677;-52
2020/12/01 11:07:44;;;;;;;22.43;19.67;;;6.30;94.30;;;;;;5072491;28;20662;-52
2020/12/01 11:10:10;;;;;;;24.37;18.10;;;6.30;94.20;;;;;;5074517;28;21166;-51
2020/12/01 11:12:38;;;;;;;21.17;17.20;;;6.40;94.10;;;;;;5072947;28;20662;-52
2020/12/01 11:15:05;;;;;;;25.00;19.13;;;6.40;94.30;;;;;;5072802;28;20772;-50
2020/12/01 11:17:32;;;;;;;20.87;16.87;;;6.40;94.00;;;;;;5072688;28;20674;-51
2020/12/01 11:19:59;;;;;;;27.83;17.10;;;6.40;94.00;;;;;;5072894;28;20630;-51
2020/12/01 11:22:26;;;;;;;24.20;16.67;;;6.40;93.70;;;;;;5072942;28;20675;-51
2020/12/01 11:24:53;;;;;;;26.53;19.20;;;6.30;93.60;;;;;;5072694;28;20653;-50
2020/12/01 11:27:20;;;;;;;25.83;18.30;;;6.30;93.80;;;;;;5072812;28;21031;-50
2020/12/01 11:29:47;;;;;;;23.23;18.40;;;6.30;93.90;;;;;;5073183;28;20670;-50
2020/12/01 11:32:14;;;;;;;22.93;19.90;;;6.30;94.10;;;;;;5073320;28;20640;-50
2020/12/01 11:34:41;;;;;;;25.57;19.40;;;6.30;94.20;;;;;;5072620;28;20693;-49
2020/12/01 11:37:08;;;;;;;25.53;19.43;;;6.30;94.20;;;;;;5072324;28;20631;-49
2020/12/01 11:39:35;;;;;;;24.50;18.30;;;6.20;94.00;;;;;;5072959;28;20653;-50
2020/12/01 11:42:02;;;;;;;23.80;19.17;;;6.20;94.00;;;;;;5073050;28;21197;-50
2020/12/01 11:44:29;;;;;;;30.00;19.57;;;6.20;94.20;;;;;;5072806;28;21032;-50
2020/12/01 11:46:57;;;;;;;26.93;20.23;;;6.20;94.30;;;;;;5072597;28;20630;-50
2020/12/01 11:49:24;;;;;;;30.33;20.60;;;6.30;94.30;;;;;;5072180;28;20908;-50
2020/12/01 11:51:50;;;;;;;28.23;19.97;;;6.30;94.20;;;;;;5072352;28;20658;-50
2020/12/01 11:54:17;;;;;;;24.03;19.10;;;6.30;94.10;;;;;;5072335;28;21281;-51
2020/12/01 11:56:44;;;;;;;24.30;19.17;;;6.40;94.10;;;;;;5072063;28;20637;-51
2020/12/01 11:59:11;;;;;;;24.30;19.00;;;6.30;93.90;;;;;;5073253;28;21014;-51
2020/12/01 12:01:38;;;;;;;22.43;18.07;;;6.40;94.00;;;;;;5072148;28;20634;-52
2020/12/01 12:04:06;;;;;;;24.63;18.77;;;6.40;94.00;;;;;;5071383;28;20660;-52
2020/12/01 12:06:35;;;;;;;26.57;20.60;;;6.40;93.70;;;;;;5072075;28;20694;-51
2020/12/01 12:09:02;;;;;;;25.30;21.13;;;6.40;93.70;;;;;;5072044;28;20675;-52
2020/12/01 12:11:29;;;;;;;28.10;21.10;;;6.40;93.80;;;;;;5071355;28;21169;-53
2020/12/01 12:13:56;;;;;;;27.60;19.67;;;6.40;93.90;;;;;;5071213;28;21278;-52
2020/12/01 12:16:22;;;;;;;24.77;18.57;;;6.40;93.90;;;;;;5072201;28;20946;-51
2020/12/01 12:18:49;;;;;;;21.03;17.60;;;6.40;94.10;;;;;;5071260;28;20699;-51
2020/12/01 12:21:18;;;;;;;27.60;18.77;;;6.50;94.00;;;;;;5071338;28;20679;-52
2020/12/01 12:23:45;;;;;;;24.43;17.80;;;6.50;93.90;;;;;;5071990;28;20701;-53
2020/12/01 12:26:12;;;;;;;20.23;17.73;;;6.50;93.90;;;;;;5053548;28;20630;-50
2020/12/01 12:28:39;;;;;;;24.10;16.40;;;6.50;93.80;;;;;;5071582;28;20614;-53
2020/12/01 12:31:06;;;;;;;23.63;17.83;;;6.50;93.70;;;;;;5072687;28;20996;-50
2020/12/01 12:33:33;;;;;;;20.33;16.50;;;6.50;93.80;;;;;;5073553;28;20660;-48
2020/12/01 12:36:00;;;;;;;22.97;16.47;;;6.60;93.80;;;;;;5073014;28;20687;-50
2020/12/01 12:38:29;;;;;;;21.70;17.30;;;6.60;93.80;;;;;;5072955;28;20660;-50
2020/12/01 12:40:56;;;;;;;27.73;17.03;;;6.70;93.70;;;;;;5073663;28;20663;-54
2020/12/01 12:43:23;;;;;;;21.57;16.37;;;6.70;93.60;;;;;;5072961;28;20698;-53
2020/12/01 12:45:50;;;;;;;18.67;16.63;;;6.70;93.50;;;;;;5074721;28;20633;-53
2020/12/01 12:48:17;;;;;;;24.30;17.37;;;6.70;93.50;;;;;;5072748;28;20736;-53
2020/12/01 12:50:44;;;;;;;22.40;17.60;;;6.70;93.50;;;;;;5071962;28;20638;-53
2020/12/01 12:53:11;;;;;;;24.40;16.47;;;6.70;93.50;;;;;;5072089;28;20630;-52
2020/12/01 12:55:38;;;;;;;23.73;18.30;;;6.70;93.60;;;;;;5071963;28;21040;-53
2020/12/01 12:58:05;;;;;;;25.27;17.10;;;6.80;93.60;;;;;;5071281;28;20638;-53
2020/12/01 13:00:32;;;;;;;24.90;15.97;;;6.80;93.60;;;;;;5071870;28;20626;-53
2020/12/01 13:02:59;;;;;;;23.47;16.70;;;6.80;93.40;;;;;;5070548;28;20634;-52
2020/12/01 13:05:26;;;;;;;19.23;16.37;;;6.80;93.40;;;;;;5071652;28;20662;-53
2020/12/01 13:07:53;;;;;;;24.20;17.57;;;6.90;93.30;;;;;;5070574;28;20974;-51
2020/12/01 13:10:20;;;;;;;24.10;17.73;;;6.80;93.30;;;;;;5071150;28;20667;-49
2020/12/01 13:12:48;;;;;;;21.67;16.90;;;6.80;93.40;;;;;;5070834;28;20696;-49
2020/12/01 13:15:15;;;;;;;21.70;18.30;;;6.70;93.50;;;;;;5070686;28;20719;-53
2020/12/01 13:17:42;;;;;;;21.60;16.57;;;6.80;93.60;;;;;;5070918;28;20941;-53
2020/12/01 13:20:12;;;;;;;26.97;20.60;;;6.80;93.60;;;;;;5071221;28;20753;-50
2020/12/01 13:22:39;;;;;;;24.57;19.57;;;6.80;93.60;;;;;;5071240;28;20653;-50